West Hartland, Connecticut
Current Conditions -  °F | °C
As of 10:51 PM on Saturday 24 Jan 2015 (Local Time) from KBDL Reporting Station
Overcast Overcast  
Wind Chill: 23°   Ceiling: 7000
Heat Index: 32°   Visibility: 10mi
Dew Point: 24°   Wind: 12mph
Humidity: 73%   Direction: 310°NW
Pressure: 29.37"   Gusts: 21mph
Location:  42°N, 72.97°W
Report Text: KBDL 250351Z 31010G18KT 10SM OVC070 00/M04 A2937 RMK AO2 SLP945 T00001044 $
Loading
Personal Weather Stations






























Interactive Weather Map New forecast layout! Learn more

10-Day Weather Forecast

Advertisements
Track Severe Weather on mobile